sensor_id;sensor_type;location;lat;lon;timestamp;pressure;altitude;pressure_sealevel;temperature;humidity
62201;BME280;48197;42.732;27.192;2023-08-06T00:00:27;98544.84;;;22.21;100.00
62201;BME280;48197;42.732;27.192;2023-08-06T00:02:54;98547.66;;;22.16;100.00
62201;BME280;48197;42.732;27.192;2023-08-06T00:05:21;98551.25;;;22.11;100.00
62201;BME280;48197;42.732;27.192;2023-08-06T00:07:48;98541.28;;;22.04;100.00
62201;BME280;48197;42.732;27.192;2023-08-06T00:10:16;98540.25;;;21.96;100.00
62201;BME280;48197;42.732;27.192;2023-08-06T00:12:43;98529.00;;;21.90;100.00
62201;BME280;48197;42.732;27.192;2023-08-06T00:15:11;98534.88;;;21.87;100.00
62201;BME280;48197;42.732;27.192;2023-08-06T00:17:37;98537.41;;;21.85;100.00
62201;BME280;48197;42.732;27.192;2023-08-06T00:20:05;98536.66;;;21.84;100.00
62201;BME280;48197;42.732;27.192;2023-08-06T00:22:36;98530.78;;;21.88;100.00
62201;BME280;48197;42.732;27.192;2023-08-06T00:25:04;98525.16;;;21.93;100.00
62201;BME280;48197;42.732;27.192;2023-08-06T00:27:31;98520.81;;;21.98;100.00
62201;BME280;48197;42.732;27.192;2023-08-06T00:29:59;98514.94;;;21.96;100.00
62201;BME280;48197;42.732;27.192;2023-08-06T00:32:26;98518.00;;;21.92;100.00
62201;BME280;48197;42.732;27.192;2023-08-06T00:34:53;98513.91;;;21.88;100.00
62201;BME280;48197;42.732;27.192;2023-08-06T00:37:20;98509.03;;;21.82;100.00
62201;BME280;48197;42.732;27.192;2023-08-06T00:39:47;98497.81;;;21.77;100.00
62201;BME280;48197;42.732;27.192;2023-08-06T00:42:14;98497.28;;;21.73;100.00
62201;BME280;48197;42.732;27.192;2023-08-06T00:44:42;98496.03;;;21.68;100.00
62201;BME280;48197;42.732;27.192;2023-08-06T00:47:09;98499.06;;;21.65;100.00
62201;BME280;48197;42.732;27.192;2023-08-06T00:49:36;98504.69;;;21.59;100.00
62201;BME280;48197;42.732;27.192;2023-08-06T00:52:03;98502.91;;;21.56;100.00
62201;BME280;48197;42.732;27.192;2023-08-06T00:54:31;98503.91;;;21.53;100.00
62201;BME280;48197;42.732;27.192;2023-08-06T00:56:59;98505.97;;;21.52;100.00
62201;BME280;48197;42.732;27.192;2023-08-06T00:59:26;98510.81;;;21.52;100.00
62201;BME280;48197;42.732;27.192;2023-08-06T01:01:53;98500.34;;;21.47;100.00
62201;BME280;48197;42.732;27.192;2023-08-06T01:04:20;98494.41;;;21.39;100.00
62201;BME280;48197;42.732;27.192;2023-08-06T01:06:52;98490.34;;;21.34;100.00
62201;BME280;48197;42.732;27.192;2023-08-06T01:09:35;98484.44;;;21.27;100.00
62201;BME280;48197;42.732;27.192;2023-08-06T01:12:25;98476.50;;;21.19;100.00
62201;BME280;48197;42.732;27.192;2023-08-06T01:15:00;98466.00;;;21.14;100.00
62201;BME280;48197;42.732;27.192;2023-08-06T01:17:29;98460.94;;;21.13;100.00
62201;BME280;48197;42.732;27.192;2023-08-06T01:19:56;98451.22;;;21.08;100.00
62201;BME280;48197;42.732;27.192;2023-08-06T01:22:23;98446.09;;;21.07;100.00
62201;BME280;48197;42.732;27.192;2023-08-06T01:24:50;98441.75;;;21.06;100.00
62201;BME280;48197;42.732;27.192;2023-08-06T01:27:23;98433.84;;;21.10;100.00
62201;BME280;48197;42.732;27.192;2023-08-06T01:30:03;98435.38;;;21.16;100.00
62201;BME280;48197;42.732;27.192;2023-08-06T01:32:34;98430.28;;;21.20;100.00
62201;BME280;48197;42.732;27.192;2023-08-06T01:35:02;98415.47;;;21.26;100.00
62201;BME280;48197;42.732;27.192;2023-08-06T01:37:30;98424.94;;;21.28;100.00
62201;BME280;48197;42.732;27.192;2023-08-06T01:39:58;98421.34;;;21.28;100.00
62201;BME280;48197;42.732;27.192;2023-08-06T01:42:24;98416.25;;;21.26;100.00
62201;BME280;48197;42.732;27.192;2023-08-06T01:44:52;98410.88;;;21.28;100.00
62201;BME280;48197;42.732;27.192;2023-08-06T01:47:19;98407.81;;;21.32;100.00
62201;BME280;48197;42.732;27.192;2023-08-06T01:49:47;98416.50;;;21.34;100.00
62201;BME280;48197;42.732;27.192;2023-08-06T01:52:14;98406.53;;;21.33;100.00
62201;BME280;48197;42.732;27.192;2023-08-06T01:54:41;98407.03;;;21.31;100.00
62201;BME280;48197;42.732;27.192;2023-08-06T01:57:08;98399.38;;;21.26;100.00
62201;BME280;48197;42.732;27.192;2023-08-06T01:59:36;98404.47;;;21.22;100.00
62201;BME280;48197;42.732;27.192;2023-08-06T02:02:02;98413.94;;;21.13;100.00
62201;BME280;48197;42.732;27.192;2023-08-06T02:04:29;98407.78;;;21.04;100.00
62201;BME280;48197;42.732;27.192;2023-08-06T02:06:55;98406.00;;;21.00;100.00
62201;BME280;48197;42.732;27.192;2023-08-06T02:09:22;98419.53;;;21.02;100.00
62201;BME280;48197;42.732;27.192;2023-08-06T02:11:48;98420.81;;;21.07;100.00
62201;BME280;48197;42.732;27.192;2023-08-06T02:14:15;98419.78;;;21.04;100.00
62201;BME280;48197;42.732;27.192;2023-08-06T02:16:42;98419.28;;;21.00;100.00
62201;BME280;48197;42.732;27.192;2023-08-06T02:19:09;98413.13;;;20.96;100.00
62201;BME280;48197;42.732;27.192;2023-08-06T02:21:36;98410.81;;;20.94;100.00
62201;BME280;48197;42.732;27.192;2023-08-06T02:24:03;98423.34;;;20.93;100.00
62201;BME280;48197;42.732;27.192;2023-08-06T02:26:30;98415.94;;;20.96;100.00
62201;BME280;48197;42.732;27.192;2023-08-06T02:28:57;98421.06;;;21.03;100.00
62201;BME280;48197;42.732;27.192;2023-08-06T02:31:24;98419.25;;;21.06;100.00
62201;BME280;48197;42.732;27.192;2023-08-06T02:33:51;98423.13;;;21.08;100.00
62201;BME280;48197;42.732;27.192;2023-08-06T02:36:18;98421.06;;;21.09;100.00
62201;BME280;48197;42.732;27.192;2023-08-06T02:38:45;98415.69;;;21.05;100.00
62201;BME280;48197;42.732;27.192;2023-08-06T02:41:13;98407.03;;;20.97;100.00
62201;BME280;48197;42.732;27.192;2023-08-06T02:43:40;98403.44;;;20.91;100.00
62201;BME280;48197;42.732;27.192;2023-08-06T02:46:07;98391.94;;;20.89;100.00
62201;BME280;48197;42.732;27.192;2023-08-06T02:48:32;98400.88;;;20.88;100.00
62201;BME280;48197;42.732;27.192;2023-08-06T02:51:00;98410.31;;;20.90;100.00
62201;BME280;48197;42.732;27.192;2023-08-06T02:53:28;98409.56;;;20.95;100.00
62201;BME280;48197;42.732;27.192;2023-08-06T02:55:55;98414.97;;;21.10;100.00
62201;BME280;48197;42.732;27.192;2023-08-06T02:58:23;98414.44;;;21.29;100.00
62201;BME280;48197;42.732;27.192;2023-08-06T03:00:59;98416.03;;;21.47;100.00
62201;BME280;48197;42.732;27.192;2023-08-06T03:03:27;98413.97;;;21.64;100.00
62201;BME280;48197;42.732;27.192;2023-08-06T03:05:54;98419.06;;;21.77;100.00
62201;BME280;48197;42.732;27.192;2023-08-06T03:08:21;98417.53;;;21.87;100.00
62201;BME280;48197;42.732;27.192;2023-08-06T03:10:49;98415.19;;;21.97;100.00
62201;BME280;48197;42.732;27.192;2023-08-06T03:13:19;98423.63;;;22.02;100.00
62201;BME280;48197;42.732;27.192;2023-08-06T03:15:56;98421.84;;;22.05;100.00
62201;BME280;48197;42.732;27.192;2023-08-06T03:18:23;98418.75;;;22.09;100.00
62201;BME280;48197;42.732;27.192;2023-08-06T03:20:52;98423.59;;;22.14;100.00
62201;BME280;48197;42.732;27.192;2023-08-06T03:23:19;98427.16;;;22.20;100.00
62201;BME280;48197;42.732;27.192;2023-08-06T03:25:47;98414.13;;;22.28;100.00
62201;BME280;48197;42.732;27.192;2023-08-06T03:28:14;98412.06;;;22.34;100.00
62201;BME280;48197;42.732;27.192;2023-08-06T03:30:41;98405.63;;;22.39;100.00
62201;BME280;48197;42.732;27.192;2023-08-06T03:33:08;98405.88;;;22.47;100.00
62201;BME280;48197;42.732;27.192;2023-08-06T03:35:35;98398.16;;;22.53;100.00
62201;BME280;48197;42.732;27.192;2023-08-06T03:38:00;98403.50;;;22.62;100.00
62201;BME280;48197;42.732;27.192;2023-08-06T03:40:27;98402.94;;;22.70;100.00
62201;BME280;48197;42.732;27.192;2023-08-06T03:42:54;98399.34;;;22.75;100.00
62201;BME280;48197;42.732;27.192;2023-08-06T03:45:21;98398.78;;;22.76;100.00
62201;BME280;48197;42.732;27.192;2023-08-06T03:47:48;98389.81;;;22.83;100.00
62201;BME280;48197;42.732;27.192;2023-08-06T03:50:15;98391.50;;;22.98;100.00
62201;BME280;48197;42.732;27.192;2023-08-06T03:52:42;98386.06;;;23.11;100.00
62201;BME280;48197;42.732;27.192;2023-08-06T03:55:09;98389.38;;;23.15;100.00
62201;BME280;48197;42.732;27.192;2023-08-06T03:57:35;98386.31;;;23.13;100.00
62201;BME280;48197;42.732;27.192;2023-08-06T04:00:03;98378.88;;;23.10;100.00
62201;BME280;48197;42.732;27.192;2023-08-06T04:02:30;98372.97;;;23.14;100.00
62201;BME280;48197;42.732;27.192;2023-08-06T04:04:58;98364.88;;;23.35;100.00
62201;BME280;48197;42.732;27.192;2023-08-06T04:07:25;98371.09;;;23.58;100.00
62201;BME280;48197;42.732;27.192;2023-08-06T04:09:58;98372.78;;;23.67;100.00
62201;BME280;48197;42.732;27.192;2023-08-06T04:12:26;98372.25;;;23.68;100.00
62201;BME280;48197;42.732;27.192;2023-08-06T04:14:53;98367.88;;;23.73;100.00
62201;BME280;48197;42.732;27.192;2023-08-06T04:17:20;98365.00;;;23.78;100.00
62201;BME280;48197;42.732;27.192;2023-08-06T04:19:49;98361.84;;;23.88;100.00
62201;BME280;48197;42.732;27.192;2023-08-06T04:22:16;98364.78;;;24.01;100.00
62201;BME280;48197;42.732;27.192;2023-08-06T04:24:44;98369.19;;;24.15;100.00
62201;BME280;48197;42.732;27.192;2023-08-06T04:27:12;98366.78;;;24.25;100.00
62201;BME280;48197;42.732;27.192;2023-08-06T04:29:39;98366.19;;;24.32;100.00
62201;BME280;48197;42.732;27.192;2023-08-06T04:32:07;98359.94;;;24.39;100.00
62201;BME280;48197;42.732;27.192;2023-08-06T04:34:35;98363.69;;;24.48;100.00
62201;BME280;48197;42.732;27.192;2023-08-06T04:37:02;98367.31;;;24.67;100.00
62201;BME280;48197;42.732;27.192;2023-08-06T04:39:29;98356.75;;;24.86;100.00
62201;BME280;48197;42.732;27.192;2023-08-06T04:41:56;98356.63;;;25.11;100.00
62201;BME280;48197;42.732;27.192;2023-08-06T04:44:26;98347.31;;;25.16;100.00
62201;BME280;48197;42.732;27.192;2023-08-06T04:46:53;98341.94;;;25.32;100.00
62201;BME280;48197;42.732;27.192;2023-08-06T04:49:20;98348.72;;;25.55;100.00
62201;BME280;48197;42.732;27.192;2023-08-06T04:51:48;98339.84;;;26.04;100.00
62201;BME280;48197;42.732;27.192;2023-08-06T04:54:15;98341.06;;;26.22;100.00
62201;BME280;48197;42.732;27.192;2023-08-06T04:56:42;98337.44;;;26.22;100.00
62201;BME280;48197;42.732;27.192;2023-08-06T04:59:09;98345.28;;;26.16;100.00
62201;BME280;48197;42.732;27.192;2023-08-06T05:01:36;98337.78;;;26.18;100.00
62201;BME280;48197;42.732;27.192;2023-08-06T05:04:03;98338.66;;;26.13;100.00
62201;BME280;48197;42.732;27.192;2023-08-06T05:06:31;98330.50;;;26.10;100.00
62201;BME280;48197;42.732;27.192;2023-08-06T05:08:58;98337.34;;;26.14;100.00
62201;BME280;48197;42.732;27.192;2023-08-06T05:11:25;98333.41;;;26.31;100.00
62201;BME280;48197;42.732;27.192;2023-08-06T05:13:52;98338.63;;;26.26;100.00
62201;BME280;48197;42.732;27.192;2023-08-06T05:16:19;98331.25;;;26.23;100.00
62201;BME280;48197;42.732;27.192;2023-08-06T05:18:45;98329.16;;;26.24;100.00
62201;BME280;48197;42.732;27.192;2023-08-06T05:21:12;98331.88;;;26.30;100.00
62201;BME280;48197;42.732;27.192;2023-08-06T05:23:38;98324.47;;;26.26;100.00
62201;BME280;48197;42.732;27.192;2023-08-06T05:26:06;98328.38;;;26.37;100.00
62201;BME280;48197;42.732;27.192;2023-08-06T05:28:34;98326.81;;;26.49;100.00
62201;BME280;48197;42.732;27.192;2023-08-06T05:31:04;98328.91;;;26.62;100.00
62201;BME280;48197;42.732;27.192;2023-08-06T05:33:32;98324.75;;;26.63;100.00
62201;BME280;48197;42.732;27.192;2023-08-06T05:35:59;98321.19;;;26.83;100.00
62201;BME280;48197;42.732;27.192;2023-08-06T05:38:26;98319.44;;;27.36;100.00
62201;BME280;48197;42.732;27.192;2023-08-06T05:40:54;98326.59;;;27.58;100.00
62201;BME280;48197;42.732;27.192;2023-08-06T05:43:22;98321.16;;;27.39;100.00
62201;BME280;48197;42.732;27.192;2023-08-06T05:45:51;98323.22;;;27.38;100.00
62201;BME280;48197;42.732;27.192;2023-08-06T05:48:19;98331.81;;;27.25;100.00
62201;BME280;48197;42.732;27.192;2023-08-06T05:50:46;98331.84;;;27.12;100.00
62201;BME280;48197;42.732;27.192;2023-08-06T05:53:13;98323.78;;;27.37;100.00
62201;BME280;48197;42.732;27.192;2023-08-06T05:55:40;98323.06;;;27.94;100.00
62201;BME280;48197;42.732;27.192;2023-08-06T05:58:07;98316.59;;;27.85;100.00
62201;BME280;48197;42.732;27.192;2023-08-06T06:00:34;98316.25;;;27.89;100.00
62201;BME280;48197;42.732;27.192;2023-08-06T06:03:02;98325.34;;;28.91;100.00
62201;BME280;48197;42.732;27.192;2023-08-06T06:05:29;98323.13;;;29.89;100.00
62201;BME280;48197;42.732;27.192;2023-08-06T06:07:56;98326.94;;;29.54;100.00
62201;BME280;48197;42.732;27.192;2023-08-06T06:10:21;98321.38;;;28.79;100.00
62201;BME280;48197;42.732;27.192;2023-08-06T06:12:48;98321.56;;;28.37;100.00
62201;BME280;48197;42.732;27.192;2023-08-06T06:15:15;98333.53;;;29.02;100.00
62201;BME280;48197;42.732;27.192;2023-08-06T06:17:42;98335.34;;;30.23;100.00
62201;BME280;48197;42.732;27.192;2023-08-06T06:20:09;98333.81;;;31.36;100.00
62201;BME280;48197;42.732;27.192;2023-08-06T06:22:36;98353.09;;;31.78;100.00
62201;BME280;48197;42.732;27.192;2023-08-06T06:25:03;98343.44;;;31.73;100.00
62201;BME280;48197;42.732;27.192;2023-08-06T06:27:31;98362.38;;;30.70;100.00
62201;BME280;48197;42.732;27.192;2023-08-06T06:29:58;98355.59;;;29.94;100.00
62201;BME280;48197;42.732;27.192;2023-08-06T06:32:25;98357.13;;;29.72;100.00
62201;BME280;48197;42.732;27.192;2023-08-06T06:34:53;98353.44;;;30.10;100.00
62201;BME280;48197;42.732;27.192;2023-08-06T06:37:20;98348.94;;;30.55;100.00
62201;BME280;48197;42.732;27.192;2023-08-06T06:39:47;98350.94;;;30.29;100.00
62201;BME280;48197;42.732;27.192;2023-08-06T06:42:14;98347.97;;;29.97;100.00
62201;BME280;48197;42.732;27.192;2023-08-06T06:44:41;98347.25;;;29.73;100.00
62201;BME280;48197;42.732;27.192;2023-08-06T06:47:07;98344.84;;;30.33;100.00
62201;BME280;48197;42.732;27.192;2023-08-06T06:49:34;98346.66;;;31.52;100.00
62201;BME280;48197;42.732;27.192;2023-08-06T06:52:03;98344.59;;;31.87;100.00
62201;BME280;48197;42.732;27.192;2023-08-06T06:54:31;98344.00;;;31.71;100.00
62201;BME280;48197;42.732;27.192;2023-08-06T06:56:58;98338.28;;;32.14;100.00
62201;BME280;48197;42.732;27.192;2023-08-06T06:59:25;98331.06;;;31.70;100.00
62201;BME280;48197;42.732;27.192;2023-08-06T07:01:52;98325.53;;;30.97;100.00
62201;BME280;48197;42.732;27.192;2023-08-06T07:04:19;98324.41;;;30.04;100.00
62201;BME280;48197;42.732;27.192;2023-08-06T07:06:46;98320.88;;;29.42;100.00
62201;BME280;48197;42.732;27.192;2023-08-06T07:09:14;98307.78;;;29.31;100.00
62201;BME280;48197;42.732;27.192;2023-08-06T07:11:41;98312.97;;;31.00;100.00
62201;BME280;48197;42.732;27.192;2023-08-06T07:14:10;98313.00;;;33.09;100.00
62201;BME280;48197;42.732;27.192;2023-08-06T07:16:36;98324.72;;;34.46;98.49
62201;BME280;48197;42.732;27.192;2023-08-06T07:19:03;98323.66;;;35.21;92.34
62201;BME280;48197;42.732;27.192;2023-08-06T07:21:31;98333.00;;;35.84;87.90
62201;BME280;48197;42.732;27.192;2023-08-06T07:23:59;98343.22;;;36.18;84.99
62201;BME280;48197;42.732;27.192;2023-08-06T07:26:26;98335.88;;;36.06;83.59
62201;BME280;48197;42.732;27.192;2023-08-06T07:28:53;98338.56;;;35.70;80.42
62201;BME280;48197;42.732;27.192;2023-08-06T07:31:20;98338.13;;;36.07;78.75
62201;BME280;48197;42.732;27.192;2023-08-06T07:33:47;98339.09;;;36.55;73.90
62201;BME280;48197;42.732;27.192;2023-08-06T07:36:14;98339.00;;;36.31;73.83
62201;BME280;48197;42.732;27.192;2023-08-06T07:38:42;98337.44;;;36.18;73.17
62201;BME280;48197;42.732;27.192;2023-08-06T07:41:09;98314.81;;;36.13;72.21
62201;BME280;48197;42.732;27.192;2023-08-06T07:43:37;98310.06;;;36.51;70.21
62201;BME280;48197;42.732;27.192;2023-08-06T07:46:04;98316.03;;;36.76;68.96
62201;BME280;48197;42.732;27.192;2023-08-06T07:48:31;98311.56;;;36.97;66.21
62201;BME280;48197;42.732;27.192;2023-08-06T07:50:59;98306.09;;;37.13;63.24
62201;BME280;48197;42.732;27.192;2023-08-06T07:53:26;98307.72;;;37.16;62.50
62201;BME280;48197;42.732;27.192;2023-08-06T07:55:54;98316.59;;;37.20;60.06
62201;BME280;48197;42.732;27.192;2023-08-06T07:58:21;98316.47;;;37.30;58.48
62201;BME280;48197;42.732;27.192;2023-08-06T08:00:48;98324.94;;;37.04;58.68
62201;BME280;48197;42.732;27.192;2023-08-06T08:03:15;98324.72;;;37.00;58.81
62201;BME280;48197;42.732;27.192;2023-08-06T08:05:43;98325.72;;;37.75;57.41
62201;BME280;48197;42.732;27.192;2023-08-06T08:08:10;98332.75;;;37.37;57.79
62201;BME280;48197;42.732;27.192;2023-08-06T08:10:37;98337.06;;;36.46;60.05
62201;BME280;48197;42.732;27.192;2023-08-06T08:13:05;98330.94;;;36.73;60.49
62201;BME280;48197;42.732;27.192;2023-08-06T08:15:32;98322.34;;;37.32;58.64
62201;BME280;48197;42.732;27.192;2023-08-06T08:17:59;98321.88;;;37.35;57.54
62201;BME280;48197;42.732;27.192;2023-08-06T08:20:26;98312.84;;;37.17;57.76
62201;BME280;48197;42.732;27.192;2023-08-06T08:22:59;98321.72;;;36.98;58.24
62201;BME280;48197;42.732;27.192;2023-08-06T08:25:27;98316.66;;;36.87;57.14
62201;BME280;48197;42.732;27.192;2023-08-06T08:27:54;98305.19;;;37.34;56.42
62201;BME280;48197;42.732;27.192;2023-08-06T08:30:21;98308.44;;;37.52;54.44
62201;BME280;48197;42.732;27.192;2023-08-06T08:32:48;98304.31;;;37.55;54.33
62201;BME280;48197;42.732;27.192;2023-08-06T08:35:16;98294.13;;;36.38;55.92
62201;BME280;48197;42.732;27.192;2023-08-06T08:37:43;98302.28;;;35.65;58.07
62201;BME280;48197;42.732;27.192;2023-08-06T08:40:10;98288.00;;;36.32;54.91
62201;BME280;48197;42.732;27.192;2023-08-06T08:42:36;98291.63;;;36.89;52.13
62201;BME280;48197;42.732;27.192;2023-08-06T08:45:04;98289.13;;;36.72;50.49
62201;BME280;48197;42.732;27.192;2023-08-06T08:47:30;98298.50;;;35.84;51.06
62201;BME280;48197;42.732;27.192;2023-08-06T08:49:58;98291.56;;;35.66;51.05
62201;BME280;48197;42.732;27.192;2023-08-06T08:52:27;98286.69;;;35.90;50.46
62201;BME280;48197;42.732;27.192;2023-08-06T08:54:57;98267.09;;;36.31;49.97
62201;BME280;48197;42.732;27.192;2023-08-06T08:57:25;98272.50;;;36.82;48.38
62201;BME280;48197;42.732;27.192;2023-08-06T08:59:52;98265.34;;;37.42;45.78
62201;BME280;48197;42.732;27.192;2023-08-06T09:02:18;98254.66;;;37.80;42.09
62201;BME280;48197;42.732;27.192;2023-08-06T09:04:47;98249.91;;;37.73;38.17
62201;BME280;48197;42.732;27.192;2023-08-06T09:07:16;98232.66;;;37.49;40.00
62201;BME280;48197;42.732;27.192;2023-08-06T09:09:44;98241.13;;;37.22;40.35
62201;BME280;48197;42.732;27.192;2023-08-06T09:12:15;98232.91;;;36.59;40.94
62201;BME280;48197;42.732;27.192;2023-08-06T09:14:42;98222.31;;;36.85;40.81
62201;BME280;48197;42.732;27.192;2023-08-06T09:48:37;98194.06;;;36.25;41.93
62201;BME280;48197;42.732;27.192;2023-08-06T09:51:04;98186.84;;;36.59;40.24
62201;BME280;48197;42.732;27.192;2023-08-06T09:53:32;98176.09;;;36.48;40.58
62201;BME280;48197;42.732;27.192;2023-08-06T09:56:00;98172.03;;;35.72;41.57
62201;BME280;48197;42.732;27.192;2023-08-06T09:58:29;98180.84;;;35.22;42.96
62201;BME280;48197;42.732;27.192;2023-08-06T10:00:58;98169.97;;;35.20;43.42
62201;BME280;48197;42.732;27.192;2023-08-06T10:03:25;98168.19;;;35.58;42.52
62201;BME280;48197;42.732;27.192;2023-08-06T10:05:52;98163.94;;;35.59;40.21
62201;BME280;48197;42.732;27.192;2023-08-06T10:08:19;98169.78;;;35.28;40.36
62201;BME280;48197;42.732;27.192;2023-08-06T10:10:46;98161.75;;;34.73;41.23
62201;BME280;48197;42.732;27.192;2023-08-06T10:13:13;98165.19;;;34.50;41.97
62201;BME280;48197;42.732;27.192;2023-08-06T10:15:41;98163.56;;;34.38;41.54
62201;BME280;48197;42.732;27.192;2023-08-06T10:18:08;98140.09;;;34.10;42.03
62201;BME280;48197;42.732;27.192;2023-08-06T10:20:35;98152.00;;;33.96;42.47
62201;BME280;48197;42.732;27.192;2023-08-06T10:23:06;98168.03;;;33.61;42.90
62201;BME280;48197;42.732;27.192;2023-08-06T10:25:35;98173.25;;;32.69;46.44
62201;BME280;48197;42.732;27.192;2023-08-06T10:28:09;98173.16;;;31.25;51.96
62201;BME280;48197;42.732;27.192;2023-08-06T10:30:44;98159.63;;;30.33;56.40
62201;BME280;48197;42.732;27.192;2023-08-06T10:33:11;98155.94;;;29.75;59.07
62201;BME280;48197;42.732;27.192;2023-08-06T10:35:41;98127.50;;;29.59;60.85
62201;BME280;48197;42.732;27.192;2023-08-06T10:38:12;98119.41;;;29.40;62.38
62201;BME280;48197;42.732;27.192;2023-08-06T10:41:42;98104.47;;;29.24;63.86
62201;BME280;48197;42.732;27.192;2023-08-06T10:43:38;98170.31;;;28.67;67.12
62201;BME280;48197;42.732;27.192;2023-08-06T10:46:10;98295.41;;;27.16;88.60
62201;BME280;48197;42.732;27.192;2023-08-06T10:48:39;98333.28;;;24.92;100.00
62201;BME280;48197;42.732;27.192;2023-08-06T10:51:24;98395.31;;;21.38;100.00
62201;BME280;48197;42.732;27.192;2023-08-06T10:57:08;98372.66;;;18.93;100.00
62201;BME280;48197;42.732;27.192;2023-08-06T10:59:36;98303.34;;;18.82;100.00
62201;BME280;48197;42.732;27.192;2023-08-06T11:02:04;98307.69;;;18.83;100.00
62201;BME280;48197;42.732;27.192;2023-08-06T11:04:32;98346.81;;;19.04;100.00
62201;BME280;48197;42.732;27.192;2023-08-06T11:06:59;98287.63;;;19.22;100.00
62201;BME280;48197;42.732;27.192;2023-08-06T11:09:26;98282.22;;;19.50;100.00
62201;BME280;48197;42.732;27.192;2023-08-06T11:11:53;98279.66;;;19.95;100.00
62201;BME280;48197;42.732;27.192;2023-08-06T11:14:20;98292.69;;;20.10;100.00
62201;BME280;48197;42.732;27.192;2023-08-06T11:16:46;98310.59;;;20.24;100.00
62201;BME280;48197;42.732;27.192;2023-08-06T11:19:12;98337.69;;;20.38;100.00
62201;BME280;48197;42.732;27.192;2023-08-06T11:21:42;98340.25;;;20.47;100.00
62201;BME280;48197;42.732;27.192;2023-08-06T11:27:13;98350.47;;;20.45;100.00
62201;BME280;48197;42.732;27.192;2023-08-06T11:29:41;98346.88;;;20.50;100.00
62201;BME280;48197;42.732;27.192;2023-08-06T11:32:08;98339.97;;;20.39;100.00
62201;BME280;48197;42.732;27.192;2023-08-06T11:34:47;98312.97;;;20.42;100.00
62201;BME280;48197;42.732;27.192;2023-08-06T11:40:37;98270.09;;;22.18;100.00
62201;BME280;48197;42.732;27.192;2023-08-06T11:43:05;98256.44;;;22.81;100.00
62201;BME280;48197;42.732;27.192;2023-08-06T11:45:34;98226.50;;;23.33;100.00
62201;BME280;48197;42.732;27.192;2023-08-06T11:48:01;98236.81;;;23.98;100.00
62201;BME280;48197;42.732;27.192;2023-08-06T11:50:29;98234.13;;;24.25;100.00
62201;BME280;48197;42.732;27.192;2023-08-06T11:52:58;98220.38;;;24.54;100.00
62201;BME280;48197;42.732;27.192;2023-08-06T11:55:27;98218.06;;;25.30;100.00
62201;BME280;48197;42.732;27.192;2023-08-06T11:57:57;98216.09;;;26.60;100.00
62201;BME280;48197;42.732;27.192;2023-08-06T12:00:24;98240.38;;;27.68;100.00
62201;BME280;48197;42.732;27.192;2023-08-06T12:02:52;98257.94;;;28.40;100.00
62201;BME280;48197;42.732;27.192;2023-08-06T12:05:23;98242.53;;;29.33;100.00
62201;BME280;48197;42.732;27.192;2023-08-06T12:07:54;98268.31;;;29.50;100.00
62201;BME280;48197;42.732;27.192;2023-08-06T12:10:21;98275.47;;;29.90;100.00
62201;BME280;48197;42.732;27.192;2023-08-06T12:12:49;98270.56;;;30.71;100.00
62201;BME280;48197;42.732;27.192;2023-08-06T12:15:17;98269.09;;;31.38;100.00
62201;BME280;48197;42.732;27.192;2023-08-06T12:17:44;98271.44;;;31.57;100.00
62201;BME280;48197;42.732;27.192;2023-08-06T12:20:11;98284.47;;;32.03;100.00
62201;BME280;48197;42.732;27.192;2023-08-06T12:22:39;98289.50;;;32.29;100.00
62201;BME280;48197;42.732;27.192;2023-08-06T12:25:07;98282.50;;;32.40;100.00
62201;BME280;48197;42.732;27.192;2023-08-06T12:27:38;98292.16;;;32.45;100.00
62201;BME280;48197;42.732;27.192;2023-08-06T12:30:06;98274.38;;;31.84;100.00
62201;BME280;48197;42.732;27.192;2023-08-06T12:32:33;98298.91;;;31.87;100.00
62201;BME280;48197;42.732;27.192;2023-08-06T12:35:00;98296.69;;;32.03;100.00
62201;BME280;48197;42.732;27.192;2023-08-06T12:37:28;98318.38;;;31.81;100.00
62201;BME280;48197;42.732;27.192;2023-08-06T12:39:55;98333.25;;;31.62;100.00
62201;BME280;48197;42.732;27.192;2023-08-06T12:42:21;98330.53;;;31.64;100.00
62201;BME280;48197;42.732;27.192;2023-08-06T12:44:51;98325.91;;;31.51;100.00
62201;BME280;48197;42.732;27.192;2023-08-06T12:47:18;98341.00;;;31.69;100.00
62201;BME280;48197;42.732;27.192;2023-08-06T12:49:46;98339.13;;;31.39;100.00
62201;BME280;48197;42.732;27.192;2023-08-06T12:52:14;98328.94;;;31.53;100.00
62201;BME280;48197;42.732;27.192;2023-08-06T12:54:41;98320.13;;;32.02;100.00
62201;BME280;48197;42.732;27.192;2023-08-06T12:57:08;98321.25;;;32.51;100.00
62201;BME280;48197;42.732;27.192;2023-08-06T12:59:35;98322.75;;;32.52;100.00
62201;BME280;48197;42.732;27.192;2023-08-06T13:02:06;98320.28;;;32.21;100.00
62201;BME280;48197;42.732;27.192;2023-08-06T13:04:33;98310.09;;;32.10;100.00
62201;BME280;48197;42.732;27.192;2023-08-06T13:07:00;98304.28;;;32.53;100.00
62201;BME280;48197;42.732;27.192;2023-08-06T13:09:27;98304.16;;;32.88;100.00
62201;BME280;48197;42.732;27.192;2023-08-06T13:11:54;98305.53;;;33.24;100.00
62201;BME280;48197;42.732;27.192;2023-08-06T13:14:21;98311.00;;;33.39;100.00
62201;BME280;48197;42.732;27.192;2023-08-06T13:16:48;98307.94;;;33.18;100.00
62201;BME280;48197;42.732;27.192;2023-08-06T13:19:15;98300.66;;;33.07;100.00
62201;BME280;48197;42.732;27.192;2023-08-06T13:36:20;98279.59;;;31.95;100.00
62201;BME280;48197;42.732;27.192;2023-08-06T13:38:47;98287.38;;;33.02;100.00
62201;BME280;48197;42.732;27.192;2023-08-06T13:41:14;98293.03;;;34.05;100.00